Hauptseite
METAR-TAF:

METAR-TAF

Flughäfen :

Fliegerhorst Lechfeld

Lechfeld, Deutschland

Breite: 48-11N, Länge: 010-52E, Höhe: 555 m

Beobachtung

Neuester Wetterbericht von vor 10 Minuten, um 23:20 UTC
Windstille
Temperatur 17°C
Luftfeuchtigkeit 77%
Luftdruck 1020 hPa
Sichtweite 10 km oder mehr
Leicht bewölkt in der Höhe von 35000 ft

METAR: ETSL 212320Z 00000KT 9999 FEW350 17/13 Q1020 BLU+

Zeit: 01:30 (23:30 UTC)

Prognose

Neuester Wetterbericht von vor 8 Stunden und 50 Minuten, um 14:40 UTC
Gültige Prognose vom 21 um 14 UTC bis 21 um 23 UTC
Wind 8 kt aus Nord/Nordost
Sichtweite: 1520 m
Leicht bewölkt in der Höhe von 5000 ft

TAF: ETSL 211440Z 2114/2123 03008KT 9999 NSW FEW050 CANCEL 1520 BY ETGL

Wetterbeobachtungen und Prognosen von mehr als 4000 Flughäfen (METAR und TAF Bericht).

Die verfügbaren Stationen werden durch gelbe und rote Markierungen auf der Karte dargestellt.

Führen Sie die Maus auf sie, um den Namen der Station zu sehen.

Darauf klicken, um die Beobachtung von Wetterbeobachtungen und Prognosen zu sehen.

Um die Karte zu ändern : klicken Sie auf den grünen Tasten mit einem schwarzen Kreuz Zum Vergrößern, auf den grünen Button mit einem Gedankenstrich zu verkleinern, oder auf die grünen Pfeile für benachbarte Karten.


METAR-TAF: